Time;durP1;ratioP1;P1;durP2;ratioP2;P2;SDS_P1;SDS_P2;PMS_P1;PMS_P2;Temp;Humidity;BMP_temperature;BMP_pressure;BME280_temperature;BME280_humidity;BME280_pressure;Samples;Min_cycle;Max_cycle;Signal;HPM_P1;HPM_P2
2021/11/02 00:00:22;;;;;;;3.72;2.60;;;;;;;5.76;100.00;94577.44;1034632;28;20017;-67
2021/11/02 00:00:52;;;;;;;3.05;2.42;;;;;;;5.52;100.00;94545.19;1034784;28;20113;-68
2021/11/02 00:01:25;;;;;;;3.55;2.60;;;;;;;5.77;100.00;94579.03;1030258;28;20026;-66
2021/11/02 00:01:55;;;;;;;3.95;2.50;;;;;;;5.75;100.00;94578.50;1030272;28;20489;-67
2021/11/02 00:02:26;;;;;;;3.83;3.03;;;;;;;5.75;100.00;94575.13;1026992;28;20266;-68
2021/11/02 00:02:57;;;;;;;8.88;2.90;;;;;;;5.78;100.00;94582.41;1026670;28;20015;-66
2021/11/02 00:03:27;;;;;;;3.72;2.72;;;;;;;5.77;100.00;94584.25;1028719;28;20022;-68
2021/11/02 00:03:57;;;;;;;3.20;2.53;;;;;;;5.77;100.00;94583.44;1035038;28;20096;-66
2021/11/02 00:04:28;;;;;;;3.13;2.72;;;;;;;5.76;100.00;94587.09;1032396;28;20022;-66
2021/11/02 00:05:00;;;;;;;2.47;2.28;;;;;;;5.71;100.00;94574.88;1026918;28;20023;-67
2021/11/02 00:05:31;;;;;;;5.25;2.88;;;;;;;5.77;100.00;94584.25;1025597;28;20402;-65
2021/11/02 00:06:02;;;;;;;3.15;2.33;;;;;;;5.77;100.00;94584.25;1019334;29;20315;-66
2021/11/02 00:06:34;;;;;;;2.88;2.30;;;;;;;5.78;100.00;94591.00;1018936;29;20032;-68
2021/11/02 00:07:04;;;;;;;3.38;2.58;;;;;;;5.76;100.00;94581.88;1018597;29;20035;-67
2021/11/02 00:07:34;;;;;;;3.67;2.50;;;;;;;5.74;100.00;94576.94;1026277;28;20885;-67
2021/11/02 00:08:05;;;;;;;4.53;2.83;;;;;;;5.77;100.00;94584.25;1022731;29;20023;-67
2021/11/02 00:08:36;;;;;;;5.32;2.83;;;;;;;5.78;100.00;94585.78;1022953;28;20465;-67
2021/11/02 00:09:07;;;;;;;3.58;3.10;;;;;;;5.78;100.00;94588.41;1026746;28;20030;-67
2021/11/02 00:09:43;;;;;;;3.35;2.42;;;;;;;5.79;100.00;94587.34;1025767;28;20307;-69
2021/11/02 00:10:14;;;;;;;3.90;3.13;;;;;;;5.79;100.00;94582.13;1039161;28;20022;-68
2021/11/02 00:10:44;;;;;;;3.00;2.28;;;;;;;5.79;100.00;94576.94;1039426;28;20283;-67
2021/11/02 00:11:15;;;;;;;6.22;3.15;;;;;;;5.77;100.00;94584.25;1034528;28;20057;-67
2021/11/02 00:11:45;;;;;;;3.20;2.90;;;;;;;5.76;100.00;94576.69;1030865;28;20046;-66
2021/11/02 00:12:16;;;;;;;5.95;3.00;;;;;;;5.77;100.00;94589.44;1030648;28;20018;-67
2021/11/02 00:12:46;;;;;;;4.85;2.97;;;;;;;5.74;100.00;94579.56;1026414;28;20027;-67
2021/11/02 00:13:19;;;;;;;6.82;3.50;;;;;;;5.77;100.00;94580.84;1022903;28;20019;-68
2021/11/02 00:13:54;;;;;;;3.53;3.10;;;;;;;5.77;100.00;94583.44;1022441;29;20813;-67
2021/11/02 00:14:27;;;;;;;3.13;2.47;;;;;;;5.76;100.00;94582.66;1018138;29;20331;-67
2021/11/02 00:14:57;;;;;;;4.38;2.17;;;;;;;5.76;100.00;94577.44;1020913;28;20359;-68
2021/11/02 00:15:30;;;;;;;3.03;2.72;;;;;;;5.76;100.00;94580.06;1026749;28;20258;-66
2021/11/02 00:16:06;;;;;;;3.15;2.88;;;;;;;5.78;100.00;94585.78;1027886;28;20126;-67
2021/11/02 00:16:37;;;;;;;5.55;3.58;;;;;;;5.76;100.00;94582.66;1029240;28;20277;-67
2021/11/02 00:17:14;;;;;;;5.38;3.33;;;;;;;5.75;100.00;94581.09;1030234;28;20274;-67
2021/11/02 00:17:44;;;;;;;4.30;3.55;;;;;;;5.74;100.00;94579.56;1027765;28;20027;-66
2021/11/02 00:18:15;;;;;;;4.78;3.35;;;;;;;5.74;100.00;94582.16;1022985;28;20766;-67
2021/11/02 00:18:48;;;;;;;5.75;3.55;;;;;;;5.64;100.00;94567.31;1026864;28;20410;-67
2021/11/02 00:19:19;;;;;;;9.20;4.20;;;;;;;5.74;100.00;94583.97;1019006;29;20023;-66
2021/11/02 00:19:53;;;;;;;5.25;3.50;;;;;;;5.72;100.00;94580.84;1019404;28;20260;-67
2021/11/02 00:20:24;;;;;;;5.82;3.50;;;;;;;5.73;100.00;94583.16;1026934;28;20031;-68
2021/11/02 00:20:59;;;;;;;3.72;3.38;;;;;;;5.73;100.00;94577.19;1023532;28;20639;-68
2021/11/02 00:21:33;;;;;;;4.13;3.17;;;;;;;5.72;100.00;94575.63;1027966;28;20047;-67
2021/11/02 00:22:14;;;;;;;5.28;3.75;;;;;;;5.72;100.00;94576.41;1023978;28;20349;-68
2021/11/02 00:22:53;;;;;;;;;;;;;;;5.72;100.00;94576.41;1025787;28;20277;-68
2021/11/02 00:23:24;;;;;;;3.85;3.22;;;;;;;5.71;100.00;94574.88;1022500;28;20409;-67
2021/11/02 00:24:07;;;;;;;4.10;3.38;;;;;;;5.68;100.00;94570.94;1028160;28;20258;-66
2021/11/02 00:24:43;;;;;;;4.40;3.42;;;;;;;5.68;100.00;94575.38;1030238;28;20026;-66
2021/11/02 00:25:14;;;;;;;7.78;4.60;;;;;;;5.66;100.00;94577.44;1030449;28;20301;-67
2021/11/02 00:25:44;;;;;;;4.93;4.30;;;;;;;5.64;100.00;94576.94;1025860;28;20258;-67
2021/11/02 00:26:15;;;;;;;5.13;3.80;;;;;;;5.60;100.00;94562.88;1028756;28;20015;-67
2021/11/02 00:26:45;;;;;;;8.20;4.35;;;;;;;5.63;100.00;94577.97;1022460;28;20026;-67
2021/11/02 00:27:16;;;;;;;6.63;3.92;;;;;;;5.61;100.00;94574.88;1026248;28;20019;-67
2021/11/02 00:27:46;;;;;;;6.30;4.00;;;;;;;5.60;100.00;94578.47;1030261;28;20077;-67
2021/11/02 00:28:17;;;;;;;5.90;4.68;;;;;;;5.53;100.00;94570.16;1022685;28;20035;-67
2021/11/02 00:28:47;;;;;;;7.20;4.75;;;;;;;5.56;100.00;94573.03;1022536;29;20034;-67
2021/11/02 00:29:17;;;;;;;4.85;4.10;;;;;;;5.55;100.00;94578.50;1018619;29;20030;-67
2021/11/02 00:29:48;;;;;;;7.82;4.80;;;;;;;5.53;100.00;94585.75;1023000;28;20043;-67
2021/11/02 00:30:19;;;;;;;6.55;4.63;;;;;;;5.50;100.00;94575.88;1026334;28;20081;-67
2021/11/02 00:30:49;;;;;;;6.13;4.68;;;;;;;5.49;100.00;94576.94;1030615;28;20077;-67
2021/11/02 00:31:20;;;;;;;7.40;4.57;;;;;;;5.49;100.00;94576.94;1030863;28;20034;-67
2021/11/02 00:31:50;;;;;;;7.75;5.38;;;;;;;5.46;100.00;94582.63;1023285;28;20030;-66
2021/11/02 00:32:21;;;;;;;5.22;4.57;;;;;;;5.44;100.00;94575.88;1030862;28;20030;-66
2021/11/02 00:32:52;;;;;;;8.65;5.93;;;;;;;5.43;100.00;94579.53;1030635;28;20033;-67
2021/11/02 00:33:23;;;;;;;6.53;5.20;;;;;;;5.39;100.00;94578.47;1030587;28;20586;-67
2021/11/02 00:33:53;;;;;;;7.50;5.68;;;;;;;5.39;100.00;94575.09;1026852;28;20270;-66
2021/11/02 00:34:24;;;;;;;7.95;6.10;;;;;;;5.38;100.00;94573.53;1025557;28;20030;-67
2021/11/02 00:34:54;;;;;;;8.30;5.03;;;;;;;5.36;100.00;94578.97;1026279;28;20027;-69
2021/11/02 00:35:31;;;;;;;6.35;4.68;;;;;;;5.29;100.00;94564.66;1030248;28;20026;-68
2021/11/02 00:36:02;;;;;;;7.88;6.10;;;;;;;5.34;100.00;94583.69;1030287;28;20038;-68
2021/11/02 00:36:32;;;;;;;6.88;5.70;;;;;;;5.33;100.00;94579.53;1026564;28;20299;-67
2021/11/02 00:37:03;;;;;;;5.10;4.32;;;;;;;5.30;100.00;94569.63;1026595;28;20541;-67
2021/11/02 00:37:33;;;;;;;6.07;5.28;;;;;;;5.30;100.00;94580.03;1018543;29;20023;-67
2021/11/02 00:38:04;;;;;;;7.15;5.25;;;;;;;5.30;100.00;94579.22;1018762;29;20028;-67
2021/11/02 00:38:34;;;;;;;9.02;5.53;;;;;;;5.27;100.00;94575.34;1018326;29;20519;-68
2021/11/02 00:39:05;;;;;;;6.47;5.45;;;;;;;5.26;100.00;94578.19;1023090;28;20038;-69
2021/11/02 00:39:35;;;;;;;11.48;7.38;;;;;;;5.19;100.00;94568.03;1026665;28;20033;-68
2021/11/02 00:40:07;;;;;;;6.13;5.53;;;;;;;5.21;100.00;94584.16;1030339;28;20139;-68
2021/11/02 00:40:40;;;;;;;7.03;6.03;;;;;;;5.15;100.00;94572.97;1026911;28;20462;-68
2021/11/02 00:41:11;;;;;;;10.55;6.53;;;;;;;5.15;100.00;94582.59;1023108;28;20764;-67
2021/11/02 00:41:41;;;;;;;8.15;5.82;;;;;;;5.14;100.00;94581.03;1027193;28;20262;-67
2021/11/02 00:42:12;;;;;;;6.63;5.70;;;;;;;5.16;100.00;94584.94;1030579;28;20034;-66
2021/11/02 00:42:51;;;;;;;6.18;5.13;;;;;;;5.16;100.00;94584.94;1033110;28;20035;-66
2021/11/02 00:43:24;;;;;;;8.32;6.22;;;;;;;5.12;100.00;94573.47;1037239;28;20522;-67
2021/11/02 00:43:56;;;;;;;8.05;6.10;;;;;;;5.13;100.00;94582.06;1027262;28;20262;-66
2021/11/02 00:44:26;;;;;;;8.52;6.47;;;;;;;5.10;100.00;94583.38;1022538;29;20835;-67
2021/11/02 00:45:03;;;;;;;9.20;7.07;;;;;;;5.09;100.00;94592.19;1022598;29;20286;-67
2021/11/02 00:45:37;;;;;;;8.48;6.78;;;;;;;5.09;100.00;94587.00;1020593;28;20283;-67
2021/11/02 00:46:10;;;;;;;8.88;5.75;;;;;;;5.12;100.00;94583.88;1029560;28;20664;-67
2021/11/02 00:46:44;;;;;;;8.55;5.70;;;;;;;5.03;100.00;94579.44;1034734;28;20269;-67
2021/11/02 00:47:21;;;;;;;7.63;6.10;;;;;;;5.07;100.00;94589.06;1029316;28;20468;-67
2021/11/02 00:47:52;;;;;;;7.60;5.75;;;;;;;5.07;100.00;94588.31;1033440;28;20284;-65
2021/11/02 00:48:27;;;;;;;6.93;6.13;;;;;;;5.07;100.00;94590.91;1030614;28;20261;-67
2021/11/02 00:48:58;;;;;;;8.07;6.03;;;;;;;5.05;100.00;94585.16;1030553;28;20118;-67
2021/11/02 00:49:32;;;;;;;8.32;6.90;;;;;;;5.01;100.00;94584.13;1026478;28;20353;-67
2021/11/02 00:50:10;;;;;;;7.40;6.25;;;;;;;4.99;100.00;94583.59;1025303;28;20966;-68
2021/11/02 00:50:41;;;;;;;7.43;6.30;;;;;;;4.96;100.00;94585.66;1030451;28;20262;-67
2021/11/02 00:51:12;;;;;;;8.55;6.45;;;;;;;4.94;100.00;94581.75;1028076;28;20958;-66
2021/11/02 00:51:43;;;;;;;10.10;7.53;;;;;;;4.92;100.00;94582.00;1032262;28;20270;-67
2021/11/02 00:52:13;;;;;;;7.97;6.40;;;;;;;4.94;100.00;94579.94;1026555;28;20029;-67
2021/11/02 00:52:44;;;;;;;9.02;6.78;;;;;;;4.91;100.00;94583.03;1023109;28;20266;-68
2021/11/02 00:53:14;;;;;;;8.95;6.75;;;;;;;4.91;100.00;94582.25;1022576;29;20043;-67
2021/11/02 00:53:45;;;;;;;8.23;7.28;;;;;;;4.83;100.00;94572.34;1024687;28;20035;-67
2021/11/02 00:54:15;;;;;;;9.10;7.13;;;;;;;4.89;100.00;94574.72;1027250;28;20030;-67
2021/11/02 00:54:46;;;;;;;9.93;7.70;;;;;;;4.90;100.00;94576.28;1022708;28;20052;-66
2021/11/02 00:55:16;;;;;;;9.10;7.05;;;;;;;4.89;100.00;94577.31;1021456;29;20027;-67
2021/11/02 00:55:47;;;;;;;8.20;6.88;;;;;;;4.84;100.00;94563.53;1020347;29;20047;-67
2021/11/02 00:56:17;;;;;;;9.93;7.35;;;;;;;4.87;100.00;94571.59;1017876;28;20605;-67
2021/11/02 00:56:47;;;;;;;9.77;7.03;;;;;;;4.89;100.00;94574.72;1012952;29;20033;-67
2021/11/02 00:57:18;;;;;;;9.70;7.90;;;;;;;4.85;100.00;94571.06;1020325;28;20038;-67
2021/11/02 00:57:48;;;;;;;10.23;7.97;;;;;;;4.83;100.00;94570.56;1026530;28;20070;-66
2021/11/02 00:58:22;;;;;;;8.70;6.90;;;;;;;4.82;100.00;94571.56;1030939;28;20026;-66
2021/11/02 00:58:53;;;;;;;8.30;6.85;;;;;;;4.83;100.00;94578.34;1031220;28;20126;-67
2021/11/02 00:59:23;;;;;;;9.75;7.18;;;;;;;4.84;100.00;94569.50;1034369;28;20268;-67
2021/11/02 00:59:54;;;;;;;10.75;7.60;;;;;;;4.83;100.00;94573.16;1032698;28;20041;-67
2021/11/02 01:00:24;;;;;;;13.80;7.63;;;;;;;4.80;100.00;94570.28;1030594;28;20034;-67
2021/11/02 01:00:55;;;;;;;12.25;8.88;;;;;;;4.77;100.00;94571.56;1019322;29;20091;-68
2021/11/02 01:01:25;;;;;;;9.85;8.27;;;;;;;4.77;100.00;94576.75;1022345;29;20081;-67
2021/11/02 01:01:56;;;;;;;12.25;8.57;;;;;;;4.74;100.00;94569.47;1022631;28;20086;-67
2021/11/02 01:02:26;;;;;;;10.95;7.60;;;;;;;4.63;100.00;94560.09;1023280;28;20023;-67
2021/11/02 01:02:57;;;;;;;10.90;8.45;;;;;;;4.69;100.00;94564.25;1030641;28;20193;-67
2021/11/02 01:03:27;;;;;;;9.80;7.18;;;;;;;4.72;100.00;94569.72;1030107;28;20026;-67
2021/11/02 01:03:58;;;;;;;14.02;9.20;;;;;;;4.71;100.00;94567.38;1030072;28;20030;-67
2021/11/02 01:04:29;;;;;;;11.57;8.23;;;;;;;4.69;100.00;94572.03;1026568;28;20728;-67
2021/11/02 01:04:59;;;;;;;11.50;8.68;;;;;;;4.68;100.00;94573.09;1024749;28;20321;-67
2021/11/02 01:05:29;;;;;;;11.35;8.55;;;;;;;4.65;100.00;94563.19;1030448;28;20033;-66
2021/11/02 01:06:00;;;;;;;12.15;8.45;;;;;;;4.63;100.00;94573.06;1025659;28;20033;-68
2021/11/02 01:06:35;;;;;;;12.35;9.13;;;;;;;4.60;100.00;94570.97;1023181;28;20570;-66
2021/11/02 01:07:06;;;;;;;11.20;8.60;;;;;;;4.52;100.00;94558.47;1021924;29;20028;-67
2021/11/02 01:07:36;;;;;;;13.32;9.50;;;;;;;4.56;100.00;94570.72;1026449;28;20274;-66
2021/11/02 01:08:07;;;;;;;12.20;8.95;;;;;;;4.52;100.00;94574.81;1027613;28;20270;-67
2021/11/02 01:08:38;;;;;;;10.65;8.30;;;;;;;4.54;100.00;94564.19;1026595;28;20022;-68
2021/11/02 01:09:08;;;;;;;11.48;8.93;;;;;;;4.56;100.00;94569.91;1028133;28;20090;-67
2021/11/02 01:09:39;;;;;;;12.57;8.68;;;;;;;4.48;100.00;94560.78;1030646;28;20057;-67
2021/11/02 01:10:16;;;;;;;14.10;8.93;;;;;;;4.50;100.00;94561.31;1026722;28;20048;-67
2021/11/02 01:10:48;;;;;;;10.05;8.15;;;;;;;4.56;100.00;94567.31;1026604;28;20033;-67
2021/11/02 01:11:19;;;;;;;10.90;8.38;;;;;;;4.55;100.00;94566.53;1022500;29;20298;-67
2021/11/02 01:11:49;;;;;;;12.43;8.65;;;;;;;4.58;100.00;94565.25;1022793;29;20753;-66
2021/11/02 01:12:20;;;;;;;14.73;8.32;;;;;;;4.56;100.00;94562.13;1025097;28;20282;-67
2021/11/02 01:12:51;;;;;;;16.15;9.20;;;;;;;4.47;100.00;94562.59;1026556;28;20034;-67
2021/11/02 01:13:22;;;;;;;12.27;9.00;;;;;;;4.48;100.00;94561.56;1027233;28;20030;-67
2021/11/02 01:13:52;;;;;;;20.15;10.25;;;;;;;4.45;100.00;94556.88;1026733;28;20797;-67
2021/11/02 01:14:23;;;;;;;15.93;9.40;;;;;;;4.45;100.00;94564.66;1026066;28;20481;-67
2021/11/02 01:14:53;;;;;;;12.20;8.63;;;;;;;4.44;100.00;94557.91;1027396;28;20345;-67
2021/11/02 01:15:26;;;;;;;12.85;8.88;;;;;;;4.46;100.00;94563.66;1034031;28;20029;-65
2021/11/02 01:16:00;;;;;;;14.60;10.00;;;;;;;4.41;100.00;94555.81;1036093;28;20022;-67
2021/11/02 01:16:31;;;;;;;11.98;8.60;;;;;;;4.43;100.00;94556.38;1030592;28;20687;-67
2021/11/02 01:17:01;;;;;;;12.07;8.75;;;;;;;4.41;100.00;94561.00;1022517;29;20263;-65
2021/11/02 01:17:32;;;;;;;11.57;9.05;;;;;;;4.42;100.00;94557.38;1026485;28;20126;-65
2021/11/02 01:18:02;;;;;;;11.55;9.32;;;;;;;4.41;100.00;94555.81;1018839;29;20115;-68
2021/11/02 01:18:32;;;;;;;13.18;9.52;;;;;;;4.36;100.00;94545.44;1018793;28;20028;-67
2021/11/02 01:19:03;;;;;;;14.38;9.75;;;;;;;4.37;100.00;94562.56;1018987;29;20064;-67
2021/11/02 01:19:33;;;;;;;17.75;10.85;;;;;;;4.36;100.00;94561.00;1025253;28;20031;-68
2021/11/02 01:20:05;;;;;;;17.10;9.77;;;;;;;4.34;100.00;94557.09;1022930;28;20027;-67
2021/11/02 01:20:35;;;;;;;11.95;9.25;;;;;;;4.34;100.00;94560.47;1022982;28;20031;-66
2021/11/02 01:21:06;;;;;;;12.38;9.20;;;;;;;4.38;100.00;94555.53;1022055;29;20282;-67
2021/11/02 01:21:36;;;;;;;14.85;10.82;;;;;;;4.35;100.00;94558.66;1023490;28;20579;-66
2021/11/02 01:22:06;;;;;;;12.50;9.10;;;;;;;4.34;100.00;94551.91;1026803;28;20398;-68
2021/11/02 01:22:38;;;;;;;12.57;9.95;;;;;;;4.22;100.00;94534.69;1030484;28;20747;-67
2021/11/02 01:23:08;;;;;;;24.15;11.70;;;;;;;4.29;100.00;94544.84;1026855;28;20034;-68
2021/11/02 01:23:39;;;;;;;15.48;10.55;;;;;;;4.33;100.00;94551.13;1022673;28;20267;-67
2021/11/02 01:24:09;;;;;;;16.30;10.48;;;;;;;4.32;100.00;94554.72;1027057;28;20607;-68
2021/11/02 01:24:40;;;;;;;20.13;12.35;;;;;;;4.30;100.00;94556.03;1026237;28;20429;-67
2021/11/02 01:25:11;;;;;;;16.73;10.35;;;;;;;4.34;100.00;94552.66;1030581;28;20030;-67
2021/11/02 01:25:42;;;;;;;17.48;10.02;;;;;;;4.28;100.00;94542.50;1026137;28;20349;-67
2021/11/02 01:26:13;;;;;;;16.20;10.65;;;;;;;4.29;100.00;94538.88;1020956;28;20656;-67
2021/11/02 01:26:44;;;;;;;16.00;10.98;;;;;;;4.35;100.00;94558.66;1014671;29;20043;-67
2021/11/02 01:27:14;;;;;;;13.40;10.50;;;;;;;4.34;100.00;94550.06;1015657;29;20261;-67
2021/11/02 01:27:45;;;;;;;19.30;12.48;;;;;;;4.33;100.00;94556.31;1022734;28;20090;-67
2021/11/02 01:28:15;;;;;;;17.58;12.25;;;;;;;4.23;100.00;94545.88;1027184;28;20031;-67
2021/11/02 01:28:46;;;;;;;12.70;9.73;;;;;;;4.30;100.00;94553.44;1030519;28;20033;-66
2021/11/02 01:29:16;;;;;;;14.07;9.90;;;;;;;4.28;100.00;94548.47;1026725;28;21013;-66
2021/11/02 01:29:46;;;;;;;15.88;10.23;;;;;;;4.26;100.00;94558.34;1018519;29;20027;-66
2021/11/02 01:30:18;;;;;;;14.35;10.25;;;;;;;4.22;100.00;94552.09;1018506;29;20024;-67
2021/11/02 01:30:48;;;;;;;16.13;10.60;;;;;;;4.22;100.00;94557.28;1018293;29;20590;-67
2021/11/02 01:31:19;;;;;;;15.18;10.77;;;;;;;4.19;100.00;94547.38;1019233;29;20271;-65
2021/11/02 01:31:49;;;;;;;14.80;10.75;;;;;;;4.17;100.00;94546.88;1022970;28;20027;-67
2021/11/02 01:32:20;;;;;;;17.70;11.77;;;;;;;4.17;100.00;94552.84;1026690;28;20089;-67
2021/11/02 01:32:50;;;;;;;23.80;12.13;;;;;;;4.13;100.00;94545.81;1026643;28;20023;-67
2021/11/02 01:33:21;;;;;;;22.13;12.43;;;;;;;4.11;100.00;94547.88;1026317;28;20019;-67
2021/11/02 01:33:51;;;;;;;13.55;10.10;;;;;;;4.13;100.00;94546.59;1031124;28;20489;-67
2021/11/02 01:34:21;;;;;;;15.85;11.30;;;;;;;4.11;100.00;94545.28;1034730;28;20572;-67
2021/11/02 01:34:52;;;;;;;17.23;11.07;;;;;;;4.11;100.00;94548.66;1038743;28;20103;-68
2021/11/02 01:35:23;;;;;;;22.15;12.30;;;;;;;4.10;100.00;94541.13;1034452;28;20037;-67
2021/11/02 01:35:53;;;;;;;16.95;11.52;;;;;;;4.11;100.00;94542.69;1030503;28;20034;-67
2021/11/02 01:36:23;;;;;;;18.50;12.40;;;;;;;4.09;100.00;94539.53;1018291;29;20039;-67
2021/11/02 01:36:55;;;;;;;18.35;12.02;;;;;;;4.11;100.00;94540.09;1015124;29;20063;-67
2021/11/02 01:37:26;;;;;;;15.60;11.25;;;;;;;4.11;100.00;94537.50;1014697;29;20032;-66
2021/11/02 01:37:56;;;;;;;19.27;12.65;;;;;;;4.10;100.00;94538.53;1015715;28;20268;-67
2021/11/02 01:38:26;;;;;;;17.55;12.13;;;;;;;4.05;100.00;94533.31;1026831;28;20258;-66
2021/11/02 01:38:57;;;;;;;18.67;11.95;;;;;;;4.09;100.00;94542.13;1026594;28;20030;-66
2021/11/02 01:39:27;;;;;;;17.33;11.38;;;;;;;4.08;100.00;94532.81;1027040;28;20561;-66
2021/11/02 01:39:59;;;;;;;16.77;12.05;;;;;;;4.07;100.00;94539.81;1022002;28;20019;-66
2021/11/02 01:40:29;;;;;;;17.95;10.90;;;;;;;4.04;100.00;94539.53;1019206;28;20028;-67
2021/11/02 01:41:00;;;;;;;17.40;11.40;;;;;;;4.04;100.00;94536.94;1023088;28;20259;-66
2021/11/02 01:41:31;;;;;;;18.38;12.00;;;;;;;4.06;100.00;94535.66;1026539;28;20027;-67
2021/11/02 01:42:01;;;;;;;16.65;11.98;;;;;;;4.07;100.00;94536.44;1031145;28;20057;-67
2021/11/02 01:42:33;;;;;;;15.75;11.18;;;;;;;3.97;100.00;94524.97;1034918;28;20113;-67
2021/11/02 01:43:03;;;;;;;21.15;12.68;;;;;;;4.00;100.00;94527.06;1030527;28;20034;-68
2021/11/02 01:43:34;;;;;;;22.17;13.38;;;;;;;3.98;100.00;94531.69;1030592;28;20265;-67
2021/11/02 01:44:04;;;;;;;20.60;12.98;;;;;;;3.97;100.00;94530.16;1026440;28;20102;-67
2021/11/02 01:44:36;;;;;;;22.02;12.45;;;;;;;3.94;100.00;94532.47;1022695;29;20540;-67
2021/11/02 01:45:07;;;;;;;20.27;12.55;;;;;;;3.95;100.00;94532.19;1022761;28;20023;-67
2021/11/02 01:45:38;;;;;;;17.15;11.60;;;;;;;4.01;100.00;94528.59;1021345;28;20438;-67
2021/11/02 01:46:20;;;;;;;19.88;12.77;;;;;;;3.98;100.00;94526.50;1022923;29;20338;-68
2021/11/02 01:46:50;;;;;;;21.00;13.13;;;;;;;3.99;100.00;94529.88;1011120;29;20175;-68
2021/11/02 01:47:21;;;;;;;19.17;12.52;;;;;;;3.95;100.00;94528.81;1020243;28;20267;-67
2021/11/02 01:47:52;;;;;;;25.25;14.45;;;;;;;4.03;100.00;94530.97;1017613;29;20090;-66
2021/11/02 01:48:23;;;;;;;16.92;12.00;;;;;;;4.03;100.00;94527.59;1012405;29;20112;-65
2021/11/02 01:48:55;;;;;;;20.15;13.07;;;;;;;3.97;100.00;94524.97;1015121;29;20581;-66
2021/11/02 01:49:26;;;;;;;17.90;12.15;;;;;;;4.05;100.00;94525.50;1022955;29;20737;-67
2021/11/02 01:49:56;;;;;;;18.58;12.85;;;;;;;3.95;100.00;94516.63;1023457;28;20282;-68
2021/11/02 01:50:28;;;;;;;21.45;12.75;;;;;;;3.99;100.00;94530.69;1027236;28;20031;-67
2021/11/02 01:50:59;;;;;;;17.95;12.13;;;;;;;3.98;100.00;94528.31;1026616;28;20041;-67
2021/11/02 01:51:30;;;;;;;25.58;14.57;;;;;;;3.94;100.00;94527.28;1027658;28;20282;-68
2021/11/02 01:52:02;;;;;;;22.48;13.35;;;;;;;4.00;100.00;94532.25;1027430;28;20269;-67
2021/11/02 01:52:33;;;;;;;21.73;13.93;;;;;;;3.99;100.00;94529.88;1030274;28;20287;-66
2021/11/02 01:53:03;;;;;;;21.23;12.98;;;;;;;3.98;100.00;94529.09;1031370;28;20285;-67
2021/11/02 01:53:35;;;;;;;24.17;14.80;;;;;;;4.03;100.00;94535.38;1027316;28;20781;-67
2021/11/02 01:54:06;;;;;;;23.13;13.73;;;;;;;3.99;100.00;94525.50;1031108;28;20045;-66
2021/11/02 01:54:37;;;;;;;21.73;13.90;;;;;;;3.99;100.00;94529.88;1023424;29;20362;-67
2021/11/02 01:55:11;;;;;;;27.25;15.77;;;;;;;3.97;100.00;94531.97;1015447;29;20116;-66
2021/11/02 01:55:41;;;;;;;24.58;14.25;;;;;;;3.91;100.00;94525.94;1014302;29;20040;-66
2021/11/02 01:56:12;;;;;;;24.95;15.20;;;;;;;3.88;100.00;94518.66;1022881;28;20316;-67
2021/11/02 01:56:48;;;;;;;20.38;12.95;;;;;;;3.96;100.00;94528.59;1023748;28;20025;-68
2021/11/02 01:57:18;;;;;;;29.52;16.02;;;;;;;3.93;100.00;94525.72;1023724;28;20313;-66
2021/11/02 01:57:49;;;;;;;18.92;12.77;;;;;;;3.94;100.00;94533.25;1027885;28;20745;-67
2021/11/02 01:58:20;;;;;;;21.40;13.65;;;;;;;3.89;100.00;94535.00;1031424;28;20049;-67
2021/11/02 01:58:54;;;;;;;24.17;13.52;;;;;;;3.85;100.00;94532.13;1024120;28;20637;-68
2021/11/02 01:59:27;;;;;;;21.80;13.43;;;;;;;3.81;100.00;94519.91;1026977;28;20359;-67
2021/11/02 01:59:58;;;;;;;24.45;13.55;;;;;;;3.79;100.00;94520.19;1023194;29;20267;-67
2021/11/02 02:00:28;;;;;;;29.13;15.35;;;;;;;3.82;100.00;94529.25;1027146;28;20630;-66
2021/11/02 02:00:59;;;;;;;19.77;12.63;;;;;;;3.83;100.00;94531.63;1026563;28;20026;-66
2021/11/02 02:01:41;;;;;;;24.08;13.75;;;;;;;3.75;100.00;94524.28;1019547;29;20023;-67
2021/11/02 02:02:35;;;;;;;22.90;14.43;;;;;;;3.87;100.00;94537.09;1015048;29;20036;-67
2021/11/02 02:03:09;;;;;;;24.25;13.82;;;;;;;3.84;100.00;94533.19;1012921;29;20269;-68
2021/11/02 02:03:50;;;;;;;27.20;15.55;;;;;;;3.85;100.00;94529.53;1026899;28;20258;-67
2021/11/02 02:04:29;;;;;;;21.50;13.45;;;;;;;3.91;100.00;94531.16;1029403;28;20705;-67
2021/11/02 02:05:08;;;;;;;24.10;14.85;;;;;;;3.89;100.00;94533.22;1022892;28;20349;-66
2021/11/02 02:05:46;;;;;;;29.23;15.20;;;;;;;3.89;100.00;94530.63;1021223;28;20306;-67
2021/11/02 02:06:44;;;;;;;27.55;14.27;;;;;;;3.81;100.00;94518.09;1018277;29;20271;-67
2021/11/02 02:07:32;;;;;;;23.88;14.18;;;;;;;3.88;100.00;94531.63;1018771;29;20263;-67
2021/11/02 02:08:28;;;;;;;23.08;14.30;;;;;;;3.91;100.00;94531.16;1018393;29;20773;-67
2021/11/02 02:09:03;;;;;;;26.42;14.85;;;;;;;3.80;100.00;94516.56;1025712;28;20793;-66
2021/11/02 02:09:41;;;;;;;27.08;15.40;;;;;;;3.89;100.00;94532.41;1019389;29;20267;-66
2021/11/02 02:10:28;;;;;;;26.15;14.90;;;;;;;3.87;100.00;94526.72;1019016;29;20278;-67
2021/11/02 02:11:10;;;;;;;26.92;15.05;;;;;;;3.87;100.00;94529.31;1011522;29;20272;-67
2021/11/02 02:12:09;;;;;;;32.63;15.20;;;;;;;3.77;100.00;94515.22;1023258;28;20263;-67
2021/11/02 02:12:48;;;;;;;29.85;16.15;;;;;;;3.84;100.00;94532.41;1027273;28;20773;-67
2021/11/02 02:13:50;;;;;;;29.45;15.85;;;;;;;3.80;100.00;94524.34;1022969;28;20271;-67
2021/11/02 02:14:27;;;;;;;32.17;17.17;;;;;;;3.76;100.00;94520.69;1027914;28;20793;-67
2021/11/02 02:15:41;;;;;;;29.90;16.20;;;;;;;3.75;100.00;94524.28;1028026;28;20589;-67
2021/11/02 02:16:19;;;;;;;34.65;17.15;;;;;;;3.71;100.00;94524.00;1024164;28;20357;-67
2021/11/02 02:16:50;;;;;;;25.73;15.13;;;;;;;3.69;100.00;94525.28;1025899;28;20285;-68
2021/11/02 02:17:23;;;;;;;29.15;15.93;;;;;;;3.71;100.00;94528.41;1019415;28;20259;-65
2021/11/02 02:18:07;;;;;;;34.38;17.65;;;;;;;3.72;100.00;94517.81;1011323;29;20762;-67
2021/11/02 02:18:57;;;;;;;29.85;16.52;;;;;;;3.72;100.00;94525.59;1022424;29;21096;-66
2021/11/02 02:19:42;;;;;;;28.20;15.27;;;;;;;3.73;100.00;94526.38;1023388;28;20278;-67
2021/11/02 02:20:35;;;;;;;32.25;15.68;;;;;;;3.72;100.00;94528.19;1026875;28;20597;-67
2021/11/02 02:21:23;;;;;;;24.80;14.90;;;;;;;3.69;100.00;94520.09;1023463;28;20274;-66
2021/11/02 02:22:09;;;;;;;26.17;14.93;;;;;;;3.69;100.00;94517.50;1028824;28;20870;-66
2021/11/02 02:23:02;;;;;;;30.90;16.17;;;;;;;3.72;100.00;94514.41;1028356;28;20300;-67
2021/11/02 02:23:47;;;;;;;30.23;15.43;;;;;;;3.73;100.00;94516.78;1031102;28;20268;-67
2021/11/02 02:24:42;;;;;;;35.00;17.23;;;;;;;3.73;100.00;94514.19;1027813;28;20285;-67
2021/11/02 02:25:34;;;;;;;26.75;14.68;;;;;;;3.69;100.00;94515.72;1034479;28;20299;-68
2021/11/02 02:26:28;;;;;;;26.25;15.43;;;;;;;3.62;100.00;94502.19;1032771;28;20320;-67
2021/11/02 02:27:10;;;;;;;40.47;18.65;;;;;;;3.67;100.00;94514.38;1022745;29;20270;-67
2021/11/02 02:27:59;;;;;;;29.05;15.43;;;;;;;3.69;100.00;94517.50;1023219;28;20265;-67
2021/11/02 02:28:36;;;;;;;36.90;17.50;;;;;;;3.64;100.00;94522.66;1029693;28;20317;-67
2021/11/02 02:29:06;;;;;;;29.85;17.00;;;;;;;3.62;100.00;94512.56;1030669;28;20034;-67
2021/11/02 02:29:40;;;;;;;28.77;16.80;;;;;;;3.60;100.00;94498.25;1030834;28;20311;-68
2021/11/02 02:30:15;;;;;;;28.95;16.50;;;;;;;3.67;100.00;94509.97;1031333;28;20030;-66
2021/11/02 02:30:57;;;;;;;24.85;15.63;;;;;;;3.58;100.00;94508.09;1019035;29;20267;-65
2021/11/02 02:31:28;;;;;;;26.30;15.32;;;;;;;3.63;100.00;94510.72;1015280;29;20264;-66
2021/11/02 02:31:58;;;;;;;30.33;17.33;;;;;;;3.64;100.00;94517.47;1026978;28;20281;-67
2021/11/02 02:32:29;;;;;;;28.95;15.95;;;;;;;3.63;100.00;94519.28;1024925;28;20023;-69
2021/11/02 02:32:59;;;;;;;25.95;16.25;;;;;;;3.55;100.00;94506.78;1023031;28;20039;-66
2021/11/02 02:33:42;;;;;;;26.23;15.98;;;;;;;3.58;100.00;94519.25;1015018;29;20107;-67
2021/11/02 02:34:13;;;;;;;26.65;15.48;;;;;;;3.55;100.00;94517.16;1016862;28;20028;-67
2021/11/02 02:34:46;;;;;;;29.33;16.38;;;;;;;3.55;100.00;94511.97;1026755;28;20266;-67
2021/11/02 02:35:18;;;;;;;23.95;14.70;;;;;;;3.62;100.00;94519.53;1023079;29;20357;-66